createdAt,value
2022-07-30T00:00:30.559Z,23.30
2022-07-30T00:02:58.716Z,23.30
2022-07-30T00:05:27.420Z,23.30
2022-07-30T00:07:55.594Z,23.30
2022-07-30T00:10:24.515Z,23.30
2022-07-30T00:12:53.242Z,23.30
2022-07-30T00:15:23.167Z,23.20
2022-07-30T00:17:51.299Z,23.20
2022-07-30T00:20:19.862Z,23.20
2022-07-30T00:22:48.408Z,23.10
2022-07-30T00:25:19.025Z,23.10
2022-07-30T00:27:47.600Z,23.10
2022-07-30T00:30:16.774Z,23.10
2022-07-30T00:32:46.229Z,23.00
2022-07-30T00:35:15.015Z,23.00
2022-07-30T00:37:43.121Z,23.00
2022-07-30T00:40:12.562Z,23.00
2022-07-30T00:42:42.983Z,23.00
2022-07-30T00:45:12.526Z,23.00
2022-07-30T00:47:41.022Z,22.90
2022-07-30T00:50:13.221Z,22.90
2022-07-30T00:52:42.165Z,22.90
2022-07-30T00:55:13.242Z,22.80
2022-07-30T00:57:41.364Z,22.80
2022-07-30T01:00:12.427Z,22.80
2022-07-30T01:02:40.849Z,22.70
2022-07-30T01:05:11.986Z,22.70
2022-07-30T01:07:40.524Z,22.70
2022-07-30T01:10:11.667Z,22.70
2022-07-30T01:12:40.379Z,22.60
2022-07-30T01:15:10.706Z,22.60
2022-07-30T01:17:39.902Z,22.60
2022-07-30T01:20:14.797Z,22.60
2022-07-30T01:22:53.834Z,22.50
2022-07-30T01:25:31.566Z,22.50
2022-07-30T01:28:06.294Z,22.50
2022-07-30T01:30:38.202Z,22.50
2022-07-30T01:33:09.961Z,22.40
2022-07-30T01:35:38.991Z,22.40
2022-07-30T01:38:08.189Z,22.40
2022-07-30T01:40:39.025Z,22.40
2022-07-30T01:43:10.403Z,22.40
2022-07-30T01:45:42.385Z,22.40
2022-07-30T01:48:15.275Z,22.40
2022-07-30T01:50:46.471Z,22.40
2022-07-30T01:53:18.253Z,22.40
2022-07-30T01:55:47.656Z,22.40
2022-07-30T01:58:20.892Z,22.40
2022-07-30T02:00:51.176Z,22.40
2022-07-30T02:03:19.953Z,22.40
2022-07-30T02:05:54.899Z,22.40
2022-07-30T02:08:29.530Z,22.40
2022-07-30T02:11:02.973Z,22.40
2022-07-30T02:13:35.902Z,22.40
2022-07-30T02:16:12.881Z,22.40
2022-07-30T02:18:49.569Z,22.40
2022-07-30T02:21:21.052Z,22.40
2022-07-30T02:23:51.349Z,22.40
2022-07-30T02:26:22.554Z,22.40
2022-07-30T02:28:55.823Z,22.40
2022-07-30T02:31:26.308Z,22.40
2022-07-30T02:33:59.890Z,22.40
2022-07-30T02:36:30.196Z,22.40
2022-07-30T02:39:00.427Z,22.40
2022-07-30T02:41:30.487Z,22.40
2022-07-30T02:44:01.961Z,22.40
2022-07-30T02:46:32.317Z,22.40
2022-07-30T02:49:01.144Z,22.40
2022-07-30T02:51:31.015Z,22.40
2022-07-30T02:54:00.843Z,22.40
2022-07-30T02:56:30.785Z,22.40
2022-07-30T02:59:02.695Z,22.40
2022-07-30T03:01:32.895Z,22.40
2022-07-30T03:04:01.741Z,22.40
2022-07-30T03:06:30.882Z,22.30
2022-07-30T03:09:01.696Z,22.40
2022-07-30T03:11:32.907Z,22.40
2022-07-30T03:14:02.861Z,22.30
2022-07-30T03:16:34.577Z,22.30
2022-07-30T03:19:05.247Z,22.30
2022-07-30T03:21:35.556Z,22.30
2022-07-30T03:24:04.792Z,22.30
2022-07-30T03:26:34.637Z,22.30
2022-07-30T03:29:04.885Z,22.20
2022-07-30T03:31:36.413Z,22.30
2022-07-30T03:34:08.064Z,22.30
2022-07-30T03:36:36.802Z,22.20
2022-07-30T03:39:06.754Z,22.30
2022-07-30T03:41:37.070Z,22.20
2022-07-30T03:44:09.712Z,22.20
2022-07-30T03:46:38.977Z,22.20
2022-07-30T03:49:07.667Z,22.20
2022-07-30T03:51:38.327Z,22.20
2022-07-30T03:54:13.286Z,22.20
2022-07-30T03:56:43.136Z,22.20
2022-07-30T03:59:14.946Z,22.20
2022-07-30T04:01:43.210Z,22.20
2022-07-30T04:04:12.537Z,22.10
2022-07-30T04:06:41.612Z,22.20
2022-07-30T04:09:11.020Z,22.10
2022-07-30T04:11:41.588Z,22.10
2022-07-30T04:14:10.696Z,22.10
2022-07-30T04:16:47.613Z,22.10
2022-07-30T04:19:20.854Z,22.10
2022-07-30T04:21:50.771Z,22.00
2022-07-30T04:24:21.099Z,22.00
2022-07-30T04:26:50.376Z,22.00
2022-07-30T04:29:23.980Z,22.00
2022-07-30T04:31:56.587Z,22.00
2022-07-30T04:34:24.715Z,22.00
2022-07-30T04:36:53.237Z,22.00
2022-07-30T04:39:21.650Z,22.10
2022-07-30T04:41:50.350Z,22.10
2022-07-30T04:44:20.002Z,22.10
2022-07-30T04:46:48.385Z,22.10
2022-07-30T04:49:20.464Z,22.20
2022-07-30T04:51:50.489Z,22.10
2022-07-30T04:54:22.123Z,22.10
2022-07-30T04:57:00.844Z,22.10
2022-07-30T04:59:29.225Z,22.10
2022-07-30T05:02:00.583Z,22.20
2022-07-30T05:04:32.779Z,22.10
2022-07-30T05:07:04.509Z,22.20
2022-07-30T05:09:33.181Z,22.20
2022-07-30T05:12:01.666Z,22.20
2022-07-30T05:14:30.251Z,22.20
2022-07-30T05:16:59.112Z,22.20
2022-07-30T05:19:27.382Z,22.20
2022-07-30T05:21:57.303Z,22.20
2022-07-30T05:24:25.475Z,22.20
2022-07-30T05:26:54.172Z,21.80
2022-07-30T05:29:22.269Z,22.30
2022-07-30T05:31:52.391Z,22.30
2022-07-30T05:34:21.371Z,22.30
2022-07-30T05:36:49.944Z,22.40
2022-07-30T05:39:19.468Z,22.40
2022-07-30T05:41:48.001Z,22.40
2022-07-30T05:44:19.694Z,22.40
2022-07-30T05:46:50.800Z,22.90
2022-07-30T05:49:19.067Z,22.40
2022-07-30T05:51:47.203Z,22.40
2022-07-30T05:54:15.335Z,22.50
2022-07-30T05:56:44.855Z,22.50
2022-07-30T05:59:12.960Z,22.50
2022-07-30T06:01:41.557Z,22.50
2022-07-30T06:04:10.183Z,22.50
2022-07-30T06:06:38.727Z,22.60
2022-07-30T06:09:06.856Z,22.60
2022-07-30T06:11:35.417Z,22.60
2022-07-30T06:14:04.911Z,22.70
2022-07-30T06:16:33.476Z,22.70
2022-07-30T06:19:01.619Z,22.70
2022-07-30T06:21:30.133Z,22.70
2022-07-30T06:24:18.237Z,22.80
2022-07-30T06:26:51.060Z,22.80
2022-07-30T06:29:21.673Z,22.80
2022-07-30T06:31:49.753Z,22.90
2022-07-30T06:34:17.884Z,22.90
2022-07-30T06:36:46.443Z,22.90
2022-07-30T06:39:14.580Z,23.00
2022-07-30T06:42:03.116Z,23.00
2022-07-30T06:44:32.631Z,23.10
2022-07-30T06:47:07.037Z,23.10
2022-07-30T06:49:37.321Z,23.10
2022-07-30T06:52:06.123Z,23.10
2022-07-30T06:54:34.881Z,23.10
2022-07-30T06:57:03.212Z,23.10
2022-07-30T06:59:33.262Z,23.10
2022-07-30T07:02:21.449Z,23.10
2022-07-30T07:04:49.547Z,23.10
2022-07-30T07:07:37.080Z,23.00
2022-07-30T07:10:07.121Z,23.00
2022-07-30T07:12:35.607Z,23.00
2022-07-30T07:15:06.033Z,23.00
2022-07-30T07:17:34.586Z,23.00
2022-07-30T07:20:03.365Z,23.00
2022-07-30T07:22:31.938Z,23.00
2022-07-30T07:25:00.028Z,23.00
2022-07-30T07:27:28.820Z,23.00
2022-07-30T07:30:01.660Z,23.10
2022-07-30T07:32:36.186Z,23.10
2022-07-30T07:35:06.084Z,23.10
2022-07-30T07:37:37.354Z,23.10
2022-07-30T07:40:07.407Z,23.10
2022-07-30T07:42:35.541Z,23.20
2022-07-30T07:45:04.218Z,23.20
2022-07-30T07:47:32.758Z,23.20
2022-07-30T07:50:02.635Z,23.30
2022-07-30T07:52:30.723Z,23.30
2022-07-30T07:54:58.906Z,23.30
2022-07-30T07:57:27.560Z,23.30
2022-07-30T07:59:55.715Z,23.40
2022-07-30T08:02:23.873Z,23.40
2022-07-30T08:04:52.090Z,23.40
2022-07-30T08:07:21.546Z,23.40
2022-07-30T08:09:50.095Z,23.40
2022-07-30T08:12:18.212Z,23.40
2022-07-30T08:14:46.335Z,23.40
2022-07-30T08:17:14.954Z,23.40
2022-07-30T08:19:43.172Z,23.50
2022-07-30T08:22:11.313Z,23.50
2022-07-30T08:24:40.944Z,23.50
2022-07-30T08:27:09.544Z,23.50
2022-07-30T08:29:37.738Z,23.50
2022-07-30T08:32:06.351Z,23.50
2022-07-30T08:34:34.444Z,23.50
2022-07-30T08:37:03.568Z,23.50
2022-07-30T08:39:31.793Z,23.50
2022-07-30T08:42:04.505Z,23.50
2022-07-30T08:44:34.643Z,23.50
2022-07-30T08:47:04.289Z,23.40
2022-07-30T08:49:33.047Z,23.50
2022-07-30T08:52:01.869Z,23.50
2022-07-30T08:54:31.308Z,23.50
2022-07-30T08:57:01.931Z,23.50
2022-07-30T08:59:59.982Z,23.50
2022-07-30T09:02:27.645Z,23.60
2022-07-30T09:04:56.055Z,23.60
2022-07-30T09:07:24.692Z,23.60
2022-07-30T09:09:53.312Z,23.70
2022-07-30T09:12:40.548Z,23.70
2022-07-30T09:15:14.216Z,23.70
2022-07-30T09:17:54.655Z,23.80
2022-07-30T09:20:25.158Z,23.80
2022-07-30T09:22:54.774Z,23.90
2022-07-30T09:25:36.766Z,23.90
2022-07-30T09:28:16.142Z,24.00
2022-07-30T09:30:47.774Z,24.00
2022-07-30T09:33:16.307Z,24.00
2022-07-30T09:35:46.075Z,24.10
2022-07-30T09:38:14.235Z,24.10
2022-07-30T09:40:51.294Z,24.10
2022-07-30T09:43:28.162Z,24.20
2022-07-30T09:46:00.955Z,24.20
2022-07-30T09:48:30.098Z,24.30
2022-07-30T09:50:58.697Z,24.30
2022-07-30T09:53:28.174Z,24.30
2022-07-30T09:55:59.671Z,24.30
2022-07-30T09:58:45.600Z,24.40
2022-07-30T10:01:14.861Z,24.50
2022-07-30T10:03:44.358Z,24.50
2022-07-30T10:06:15.442Z,24.60
2022-07-30T10:08:46.533Z,24.60
2022-07-30T10:11:22.888Z,24.60
2022-07-30T10:13:56.435Z,24.70
2022-07-30T10:16:28.193Z,24.70
2022-07-30T10:19:00.171Z,24.70
2022-07-30T10:21:32.638Z,24.70
2022-07-30T10:24:06.826Z,24.80
2022-07-30T10:26:36.078Z,24.80
2022-07-30T10:29:06.455Z,24.80
2022-07-30T10:31:48.467Z,24.80
2022-07-30T10:34:23.744Z,24.80
2022-07-30T10:36:58.692Z,24.80
2022-07-30T10:39:34.558Z,24.80
2022-07-30T10:42:19.746Z,24.80
2022-07-30T10:45:23.025Z,24.80
2022-07-30T10:47:53.147Z,24.80
2022-07-30T10:50:27.262Z,24.80
2022-07-30T10:52:56.901Z,24.80
2022-07-30T10:55:32.979Z,24.80
2022-07-30T10:58:09.252Z,24.80
2022-07-30T11:01:00.292Z,24.80
2022-07-30T11:03:40.178Z,24.80
2022-07-30T11:06:31.839Z,24.80
2022-07-30T11:09:00.379Z,24.80
2022-07-30T11:12:01.677Z,24.80
2022-07-30T11:15:07.160Z,24.90
2022-07-30T11:18:12.074Z,25.00
2022-07-30T11:20:43.077Z,25.10
2022-07-30T11:23:39.984Z,25.30
2022-07-30T11:26:14.498Z,25.40
2022-07-30T11:28:45.262Z,25.60
2022-07-30T11:31:55.006Z,25.70
2022-07-30T11:34:31.307Z,26.10
2022-07-30T11:37:18.199Z,26.10
2022-07-30T11:40:11.458Z,26.20
2022-07-30T11:42:41.777Z,26.40
2022-07-30T11:45:31.102Z,26.50
2022-07-30T11:48:03.318Z,26.60
2022-07-30T11:50:35.679Z,26.80
2022-07-30T11:53:06.667Z,26.80
2022-07-30T11:55:37.631Z,26.90
2022-07-30T11:58:07.351Z,26.90
2022-07-30T12:00:38.578Z,26.90
2022-07-30T12:03:13.699Z,26.90
2022-07-30T12:05:44.475Z,26.80
2022-07-30T12:08:31.453Z,26.70
2022-07-30T12:11:03.376Z,26.70
2022-07-30T12:13:44.470Z,26.60
2022-07-30T12:16:15.996Z,26.50
2022-07-30T12:18:45.626Z,26.50
2022-07-30T12:21:16.967Z,26.40
2022-07-30T12:23:55.513Z,26.40
2022-07-30T12:26:26.560Z,26.40
2022-07-30T12:28:56.137Z,26.40
2022-07-30T12:31:24.426Z,26.50
2022-07-30T12:33:53.051Z,26.50
2022-07-30T12:36:31.077Z,26.50
2022-07-30T12:39:01.234Z,26.60
2022-07-30T12:41:43.513Z,26.60
2022-07-30T12:44:12.256Z,26.70
2022-07-30T12:46:42.218Z,26.90
2022-07-30T12:49:22.420Z,27.00
2022-07-30T12:52:00.481Z,27.10
2022-07-30T12:54:29.698Z,27.30
2022-07-30T12:57:00.925Z,27.30
2022-07-30T12:59:29.652Z,27.40
2022-07-30T13:02:00.832Z,27.40
2022-07-30T13:04:29.579Z,27.40
2022-07-30T13:07:13.132Z,27.50
2022-07-30T13:09:41.417Z,27.60
2022-07-30T13:12:14.127Z,27.80
2022-07-30T13:14:42.242Z,27.90
2022-07-30T13:17:11.421Z,28.00
2022-07-30T13:19:40.848Z,28.10
2022-07-30T13:22:10.331Z,28.20
2022-07-30T13:24:39.761Z,28.30
2022-07-30T13:27:08.246Z,28.30
2022-07-30T13:29:36.569Z,28.40
2022-07-30T13:32:05.385Z,28.50
2022-07-30T13:34:33.462Z,28.70
2022-07-30T13:37:02.220Z,28.80
2022-07-30T13:39:31.908Z,28.90
2022-07-30T13:42:00.465Z,29.10
2022-07-30T13:44:29.037Z,29.20
2022-07-30T13:47:01.546Z,29.40
2022-07-30T13:49:30.543Z,29.50
2022-07-30T13:51:58.685Z,29.50
2022-07-30T13:54:27.215Z,29.60
2022-07-30T13:56:56.719Z,29.60
2022-07-30T13:59:24.881Z,29.50
2022-07-30T14:01:53.289Z,29.50
2022-07-30T14:04:21.461Z,29.50
2022-07-30T14:06:49.542Z,29.50
2022-07-30T14:09:18.076Z,29.60
2022-07-30T14:11:46.613Z,29.60
2022-07-30T14:14:16.226Z,29.70
2022-07-30T14:16:47.079Z,29.70
2022-07-30T14:19:23.825Z,29.80
2022-07-30T14:21:52.959Z,30.00
2022-07-30T14:24:22.139Z,30.20
2022-07-30T14:26:58.556Z,30.40
2022-07-30T14:29:28.699Z,30.50
2022-07-30T14:31:57.838Z,30.70
2022-07-30T14:34:26.430Z,30.90
2022-07-30T14:36:54.494Z,30.30
2022-07-30T14:39:22.663Z,31.10
2022-07-30T14:41:53.178Z,31.10
2022-07-30T14:44:24.480Z,31.10
2022-07-30T14:46:54.252Z,31.10
2022-07-30T14:49:24.022Z,31.10
2022-07-30T14:51:53.275Z,31.20
2022-07-30T14:54:21.949Z,31.20
2022-07-30T14:56:59.285Z,31.20
2022-07-30T14:59:28.682Z,31.10
2022-07-30T15:01:58.716Z,31.10
2022-07-30T15:04:26.920Z,31.00
2022-07-30T15:06:55.074Z,31.00
2022-07-30T15:09:23.262Z,31.00
2022-07-30T15:12:08.813Z,31.00
2022-07-30T15:14:38.269Z,31.10
2022-07-30T15:17:09.679Z,31.10
2022-07-30T15:19:46.422Z,31.20
2022-07-30T15:22:19.243Z,31.20
2022-07-30T15:24:47.396Z,31.30
2022-07-30T15:27:15.650Z,31.40
2022-07-30T15:29:44.963Z,31.50
2022-07-30T15:32:14.440Z,31.50
2022-07-30T15:34:43.014Z,31.40
2022-07-30T15:37:11.109Z,31.40
2022-07-30T15:39:39.427Z,31.30
2022-07-30T15:42:08.084Z,31.20
2022-07-30T15:44:36.231Z,31.10
2022-07-30T15:47:04.443Z,30.90
2022-07-30T15:49:34.056Z,30.90
2022-07-30T15:52:03.017Z,30.70
2022-07-30T15:54:31.272Z,30.60
2022-07-30T15:57:01.786Z,30.50
2022-07-30T15:59:30.818Z,30.40
2022-07-30T16:02:00.685Z,30.40
2022-07-30T16:04:31.724Z,30.30
2022-07-30T16:07:02.021Z,30.20
2022-07-30T16:09:30.893Z,30.10
2022-07-30T16:11:59.475Z,30.10
2022-07-30T16:14:28.173Z,30.00
2022-07-30T16:16:56.381Z,29.90
2022-07-30T16:19:24.530Z,29.90
2022-07-30T16:21:53.350Z,29.80
2022-07-30T16:24:22.867Z,29.80
2022-07-30T16:26:51.419Z,29.70
2022-07-30T16:29:19.801Z,29.70
2022-07-30T16:31:48.421Z,29.60
2022-07-30T16:34:16.763Z,29.50
2022-07-30T16:36:45.305Z,29.50
2022-07-30T16:39:13.888Z,29.40
2022-07-30T16:41:43.782Z,29.30
2022-07-30T16:44:12.058Z,29.30
2022-07-30T16:46:40.197Z,29.20
2022-07-30T16:49:09.046Z,29.10
2022-07-30T16:51:37.290Z,29.10
2022-07-30T16:54:07.568Z,29.00
2022-07-30T16:56:36.108Z,29.00
2022-07-30T16:59:05.634Z,28.90
2022-07-30T17:01:34.175Z,28.80
2022-07-30T17:04:02.800Z,28.80
2022-07-30T17:06:30.880Z,28.70
2022-07-30T17:08:59.444Z,28.70
2022-07-30T17:11:46.425Z,28.70
2022-07-30T17:14:17.758Z,28.60
2022-07-30T17:16:45.871Z,28.60
2022-07-30T17:19:14.550Z,28.60
2022-07-30T17:21:42.656Z,28.60
2022-07-30T17:24:13.565Z,28.60
2022-07-30T17:26:43.816Z,28.60
2022-07-30T17:29:15.271Z,28.60
2022-07-30T17:31:46.267Z,28.60
2022-07-30T17:34:20.113Z,28.60
2022-07-30T17:36:52.879Z,28.70
2022-07-30T17:40:29.722Z,28.70
2022-07-30T17:42:10.986Z,28.70
2022-07-30T17:44:39.970Z,28.70
2022-07-30T17:47:15.069Z,28.70
2022-07-30T17:49:45.561Z,28.70
2022-07-30T17:52:13.703Z,28.70
2022-07-30T17:54:41.853Z,28.70
2022-07-30T17:57:10.629Z,28.70
2022-07-30T17:59:38.784Z,28.70
2022-07-30T18:02:07.448Z,28.60
2022-07-30T18:04:37.186Z,28.60
2022-07-30T18:07:06.132Z,28.60
2022-07-30T18:09:40.153Z,28.50
2022-07-30T18:12:09.374Z,28.50
2022-07-30T18:14:37.989Z,28.50
2022-07-30T18:17:09.062Z,28.40
2022-07-30T18:19:42.522Z,28.30
2022-07-30T18:22:10.729Z,28.30
2022-07-30T18:24:43.691Z,28.20
2022-07-30T18:27:13.212Z,28.20
2022-07-30T18:29:41.417Z,28.10
2022-07-30T18:32:10.157Z,28.00
2022-07-30T18:34:38.342Z,28.00
2022-07-30T18:37:08.265Z,27.90
2022-07-30T18:39:36.401Z,27.80
2022-07-30T18:42:05.674Z,27.70
2022-07-30T18:44:34.215Z,27.60
2022-07-30T18:47:02.411Z,27.60
2022-07-30T18:49:38.495Z,27.50
2022-07-30T18:52:08.786Z,27.40
2022-07-30T18:54:37.918Z,27.30
2022-07-30T18:57:11.244Z,27.30
2022-07-30T18:59:43.017Z,27.10
2022-07-30T19:02:11.298Z,27.10
2022-07-30T19:04:39.570Z,27.00
2022-07-30T19:07:09.555Z,26.90
2022-07-30T19:09:38.165Z,26.80
2022-07-30T19:12:07.262Z,26.70
2022-07-30T19:14:35.531Z,26.60
2022-07-30T19:17:14.073Z,26.50
2022-07-30T19:19:43.621Z,26.40
2022-07-30T19:22:13.571Z,26.40
2022-07-30T19:24:42.140Z,26.30
2022-07-30T19:27:14.089Z,26.20
2022-07-30T19:29:43.499Z,26.10
2022-07-30T19:32:12.189Z,26.00
2022-07-30T19:34:41.018Z,25.90
2022-07-30T19:37:09.206Z,25.80
2022-07-30T19:39:39.137Z,25.80
2022-07-30T19:42:27.944Z,25.70
2022-07-30T19:44:56.503Z,25.60
2022-07-30T19:47:26.180Z,25.50
2022-07-30T19:49:54.465Z,25.50
2022-07-30T19:52:25.344Z,25.40
2022-07-30T19:54:56.287Z,25.30
2022-07-30T19:57:24.416Z,25.30
2022-07-30T20:00:13.307Z,25.30
2022-07-30T20:02:53.131Z,25.20
2022-07-30T20:05:24.745Z,25.20
2022-07-30T20:07:53.982Z,25.10
2022-07-30T20:10:26.862Z,25.10
2022-07-30T20:12:58.117Z,25.00
2022-07-30T20:15:26.998Z,24.90
2022-07-30T20:17:58.438Z,24.90
2022-07-30T20:20:26.721Z,24.90
2022-07-30T20:22:54.944Z,24.80
2022-07-30T20:25:25.219Z,24.80
2022-07-30T20:27:53.447Z,24.70
2022-07-30T20:30:24.997Z,24.60
2022-07-30T20:32:53.815Z,24.60
2022-07-30T20:35:26.291Z,24.60
2022-07-30T20:37:56.654Z,24.50
2022-07-30T20:40:27.127Z,24.60
2022-07-30T20:42:55.679Z,24.50
2022-07-30T20:45:25.277Z,24.50
2022-07-30T20:47:56.224Z,24.50
2022-07-30T20:50:30.500Z,24.50
2022-07-30T20:52:59.671Z,24.50
2022-07-30T20:55:29.457Z,24.50
2022-07-30T20:58:06.280Z,24.40
2022-07-30T21:00:49.616Z,24.40
2022-07-30T21:03:21.210Z,24.40
2022-07-30T21:05:51.197Z,24.30
2022-07-30T21:08:25.109Z,24.30
2022-07-30T21:10:55.576Z,24.20
2022-07-30T21:13:25.065Z,24.20
2022-07-30T21:16:02.773Z,24.20
2022-07-30T21:18:32.796Z,24.20
2022-07-30T21:21:05.426Z,24.20
2022-07-30T21:23:34.763Z,24.20
2022-07-30T21:26:10.671Z,24.10
2022-07-30T21:28:41.901Z,24.10
2022-07-30T21:31:10.023Z,24.10
2022-07-30T21:33:38.709Z,24.10
2022-07-30T21:36:10.919Z,24.10
2022-07-30T21:38:41.947Z,24.10
2022-07-30T21:41:14.113Z,24.10
2022-07-30T21:43:43.915Z,24.10
2022-07-30T21:46:12.212Z,24.10
2022-07-30T21:48:41.274Z,24.10
2022-07-30T21:51:10.562Z,24.10
2022-07-30T21:53:45.031Z,24.00
2022-07-30T21:56:16.748Z,24.00
2022-07-30T21:58:46.032Z,23.90
2022-07-30T22:01:21.805Z,23.90
2022-07-30T22:04:04.762Z,23.80
2022-07-30T22:06:38.409Z,23.70
2022-07-30T22:09:19.154Z,23.70
2022-07-30T22:12:00.701Z,23.70
2022-07-30T22:14:30.082Z,23.60
2022-07-30T22:17:00.874Z,23.60
2022-07-30T22:19:33.062Z,23.60
2022-07-30T22:22:26.152Z,23.60
2022-07-30T22:24:49.647Z,23.60
2022-07-30T22:27:19.071Z,23.60
2022-07-30T22:29:50.544Z,23.50
2022-07-30T22:32:23.912Z,23.50
2022-07-30T22:34:52.913Z,23.40
2022-07-30T22:37:21.661Z,23.40
2022-07-30T22:39:54.113Z,23.30
2022-07-30T22:42:25.010Z,23.30
2022-07-30T22:44:55.632Z,23.30
2022-07-30T22:47:51.300Z,23.30
2022-07-30T22:50:15.132Z,23.30
2022-07-30T22:52:53.702Z,23.20
2022-07-30T22:55:28.645Z,23.20
2022-07-30T22:57:59.114Z,23.20
2022-07-30T23:00:28.735Z,23.20
2022-07-30T23:02:58.129Z,23.20
2022-07-30T23:05:26.328Z,23.10
2022-07-30T23:07:55.829Z,23.10
2022-07-30T23:10:25.633Z,23.10
2022-07-30T23:12:56.674Z,23.10
2022-07-30T23:15:26.733Z,23.00
2022-07-30T23:17:55.274Z,23.00
2022-07-30T23:20:23.922Z,22.90
2022-07-30T23:22:52.339Z,22.90
2022-07-30T23:25:20.954Z,22.90
2022-07-30T23:27:49.456Z,22.80
2022-07-30T23:30:18.066Z,22.80
2022-07-30T23:32:47.522Z,22.70
2022-07-30T23:35:16.563Z,22.70
2022-07-30T23:37:49.029Z,22.60
2022-07-30T23:40:18.697Z,22.60
2022-07-30T23:42:47.280Z,22.50
2022-07-30T23:45:16.155Z,22.50
2022-07-30T23:47:51.275Z,22.50
2022-07-30T23:50:33.915Z,22.40
2022-07-30T23:53:02.430Z,22.40
2022-07-30T23:55:31.558Z,22.40
2022-07-30T23:58:00.283Z,22.30
